createdAt,value
2023-04-18T04:01:43.802Z,6.30
2023-04-18T04:04:16.130Z,6.30
2023-04-18T04:06:48.040Z,6.30
2023-04-18T04:09:21.888Z,6.20
2023-04-18T04:11:53.635Z,6.20
2023-04-18T04:14:25.410Z,6.20
2023-04-18T04:16:58.428Z,6.20
2023-04-18T04:19:30.117Z,6.20
2023-04-18T04:22:01.767Z,6.10
2023-04-18T04:24:33.409Z,6.10
2023-04-18T04:27:05.065Z,6.10
2023-04-18T04:29:36.752Z,6.10
2023-04-18T04:32:09.853Z,6.10
2023-04-18T04:34:41.700Z,6.10
2023-04-18T04:37:13.485Z,6.20
2023-04-18T04:39:45.338Z,6.20
2023-04-18T04:42:17.078Z,6.20
2023-04-18T04:44:49.187Z,6.30
2023-04-18T04:47:22.313Z,6.30
2023-04-18T04:49:54.029Z,6.40
2023-04-18T04:52:25.695Z,6.50
2023-04-18T04:54:57.405Z,6.60
2023-04-18T04:57:29.025Z,6.70
2023-04-18T05:00:00.723Z,6.80
2023-04-18T05:02:33.902Z,6.90
2023-04-18T05:05:05.993Z,7.00
2023-04-18T05:07:37.666Z,7.10
2023-04-18T05:10:10.280Z,7.10
2023-04-18T05:12:41.950Z,7.20
2023-04-18T05:15:15.047Z,7.20
2023-04-18T05:17:48.129Z,7.30
2023-04-18T05:20:19.818Z,7.40
2023-04-18T05:22:51.538Z,7.70
2023-04-18T05:25:23.185Z,8.00
2023-04-18T05:27:54.859Z,8.10
2023-04-18T05:30:26.503Z,8.10
2023-04-18T05:32:59.626Z,8.10
2023-04-18T05:35:31.446Z,8.10
2023-04-18T05:38:03.168Z,8.10
2023-04-18T05:40:34.942Z,8.20
2023-04-18T05:43:06.694Z,8.20
2023-04-18T05:45:38.333Z,8.40
2023-04-18T05:48:11.418Z,8.70
2023-04-18T05:50:43.086Z,8.90
2023-04-18T05:53:15.167Z,9.00
2023-04-18T05:55:46.838Z,9.20
2023-04-18T05:58:18.517Z,9.50
2023-04-18T06:00:50.250Z,8.70
2023-04-18T06:03:23.507Z,9.80
2023-04-18T06:08:27.696Z,11.10
2023-04-18T06:10:59.358Z,11.80
2023-04-18T06:13:31.064Z,12.50
2023-04-18T06:16:02.746Z,12.80
2023-04-18T06:18:35.791Z,12.90
2023-04-18T06:21:07.454Z,12.60
2023-04-18T06:23:39.210Z,12.20
2023-04-18T06:26:10.923Z,12.40
2023-04-18T06:28:42.578Z,12.80
2023-04-18T06:31:14.306Z,13.20
2023-04-18T06:33:47.381Z,13.70
2023-04-18T06:36:19.070Z,13.70
2023-04-18T06:38:50.781Z,13.90
2023-04-18T06:41:22.477Z,14.40
2023-04-18T06:44:14.571Z,14.70
2023-04-18T06:46:45.806Z,14.90
2023-04-18T06:49:19.141Z,15.50
2023-04-18T06:51:51.399Z,16.10
2023-04-18T06:54:23.093Z,16.20
2023-04-18T06:56:54.774Z,15.70
2023-04-18T06:59:26.940Z,14.70
2023-04-18T07:01:58.656Z,13.70
2023-04-18T07:04:31.708Z,13.70
2023-04-18T07:07:03.344Z,13.80
2023-04-18T07:09:35.019Z,14.10
2023-04-18T07:12:06.841Z,14.30
2023-04-18T07:14:39.017Z,14.60
2023-04-18T07:17:10.763Z,14.90
2023-04-18T07:19:43.882Z,14.80
2023-04-18T07:22:15.531Z,15.00
2023-04-18T07:24:47.229Z,15.20
2023-04-18T07:27:18.944Z,15.30
2023-04-18T07:29:50.603Z,15.30
2023-04-18T07:32:22.547Z,15.20
2023-04-18T07:34:56.436Z,15.50
2023-04-18T07:37:28.191Z,15.60
2023-04-18T07:39:59.839Z,15.20
2023-04-18T07:42:31.494Z,15.00
2023-04-18T07:45:03.615Z,15.10
2023-04-18T07:47:35.376Z,15.40
2023-04-18T07:50:09.578Z,15.80
2023-04-18T07:52:41.242Z,15.80
2023-04-18T07:55:12.966Z,15.80
2023-04-18T07:57:45.944Z,15.70
2023-04-18T08:00:19.145Z,15.60
2023-04-18T08:02:50.967Z,15.00
2023-04-18T08:05:24.215Z,14.20
2023-04-18T08:07:55.896Z,13.80
2023-04-18T08:10:27.793Z,13.40
2023-04-18T08:12:59.478Z,13.10
2023-04-18T08:15:31.147Z,12.80
2023-04-18T08:18:02.881Z,12.60
2023-04-18T08:20:35.877Z,12.60
2023-04-18T08:23:10.399Z,12.40
2023-04-18T08:25:43.951Z,12.60
2023-04-18T08:28:15.666Z,12.80
2023-04-18T08:30:47.322Z,13.00
2023-04-18T08:33:19.021Z,12.80
2023-04-18T08:35:52.312Z,12.70
2023-04-18T08:38:23.986Z,12.80
2023-04-18T08:40:55.744Z,12.80
2023-04-18T08:43:27.451Z,13.00
2023-04-18T08:45:59.410Z,13.20
2023-04-18T08:48:31.163Z,12.90
2023-04-18T08:51:04.720Z,12.90
2023-04-18T08:53:36.436Z,13.00
2023-04-18T08:56:08.256Z,12.90
2023-04-18T08:58:39.986Z,12.70
2023-04-18T09:01:11.687Z,12.40
2023-04-18T09:03:43.507Z,12.40
2023-04-18T09:06:16.873Z,12.40
2023-04-18T09:08:55.547Z,12.50
2023-04-18T09:11:27.649Z,12.50
2023-04-18T09:13:59.386Z,12.70
2023-04-18T09:16:32.795Z,12.70
2023-04-18T09:19:11.546Z,12.60
2023-04-18T09:21:44.717Z,12.50
2023-04-18T09:24:21.313Z,12.30
2023-04-18T09:26:53.530Z,12.40
2023-04-18T09:29:42.024Z,12.40
2023-04-18T09:32:20.413Z,12.40
2023-04-18T09:34:53.354Z,12.50
2023-04-18T09:37:26.395Z,12.60
2023-04-18T09:39:58.122Z,12.80
2023-04-18T09:42:31.074Z,12.80
2023-04-18T09:45:04.543Z,12.80
2023-04-18T09:47:36.318Z,12.90
2023-04-18T09:50:09.232Z,12.90
2023-04-18T09:52:43.016Z,13.00
2023-04-18T09:55:15.882Z,13.20
2023-04-18T09:57:48.089Z,13.30
2023-04-18T10:00:22.084Z,13.90
2023-04-18T10:02:57.432Z,14.20
2023-04-18T10:05:31.648Z,14.40
2023-04-18T10:08:04.894Z,14.70
2023-04-18T10:10:37.928Z,14.50
2023-04-18T10:13:10.554Z,14.10
2023-04-18T10:15:44.081Z,13.90
2023-04-18T10:18:16.108Z,13.70
2023-04-18T10:20:47.774Z,13.90
2023-04-18T10:23:37.051Z,14.50
2023-04-18T10:26:09.025Z,15.40
2023-04-18T10:28:50.484Z,15.50
2023-04-18T10:31:22.526Z,15.40
2023-04-18T10:34:03.822Z,15.40
2023-04-18T10:36:36.719Z,15.30
2023-04-18T10:39:21.554Z,15.20
2023-04-18T10:41:53.255Z,15.10
2023-04-18T10:44:24.913Z,15.00
2023-04-18T10:47:18.776Z,15.00
2023-04-18T10:50:00.572Z,14.90
2023-04-18T10:52:32.271Z,14.70
2023-04-18T10:55:26.850Z,14.40
2023-04-18T10:57:58.567Z,14.30
2023-04-18T11:00:30.255Z,14.40
2023-04-18T11:03:02.654Z,14.30
2023-04-18T11:05:34.668Z,14.30
2023-04-18T11:08:22.321Z,14.20
2023-04-18T11:10:58.474Z,14.00
2023-04-18T11:13:30.233Z,14.10
2023-04-18T11:16:02.090Z,14.20
2023-04-18T11:18:40.135Z,14.50
2023-04-18T11:21:11.811Z,14.70
2023-04-18T11:23:43.530Z,14.90
2023-04-18T11:26:16.568Z,15.20
2023-04-18T11:28:51.025Z,15.50
2023-04-18T11:31:23.003Z,15.80
2023-04-18T11:33:56.358Z,15.90
2023-04-18T11:36:28.144Z,15.70
2023-04-18T11:38:59.822Z,15.50
2023-04-18T11:41:32.861Z,15.30
2023-04-18T11:44:05.827Z,15.20
2023-04-18T11:46:38.067Z,15.10
2023-04-18T11:49:24.661Z,15.10
2023-04-18T11:51:56.480Z,15.30
2023-04-18T11:54:41.041Z,15.30
2023-04-18T11:57:21.193Z,15.40
2023-04-18T11:59:53.582Z,15.40
2023-04-18T12:02:26.279Z,15.40
2023-04-18T12:04:58.853Z,15.50
2023-04-18T12:07:36.069Z,15.50
2023-04-18T12:10:09.151Z,15.30
2023-04-18T12:12:47.119Z,15.40
2023-04-18T12:15:18.915Z,15.40
2023-04-18T12:17:50.694Z,15.40
2023-04-18T12:20:22.432Z,15.40
2023-04-18T12:22:54.114Z,15.40
2023-04-18T12:25:27.378Z,15.60
2023-04-18T12:28:01.928Z,15.80
2023-04-18T12:30:36.872Z,15.90
2023-04-18T12:33:09.387Z,15.90
2023-04-18T12:35:41.164Z,16.00
2023-04-18T12:38:12.870Z,15.90
2023-04-18T12:40:44.576Z,15.90
2023-04-18T12:43:17.780Z,16.00
2023-04-18T12:45:49.548Z,16.00
2023-04-18T12:48:21.225Z,16.00
2023-04-18T12:50:52.909Z,16.00
2023-04-18T12:53:24.582Z,16.00
2023-04-18T12:55:56.260Z,16.00
2023-04-18T12:58:29.353Z,16.00
2023-04-18T13:01:01.142Z,16.20
2023-04-18T13:03:32.960Z,16.20
2023-04-18T13:06:04.953Z,16.20
2023-04-18T13:08:36.900Z,16.30
2023-04-18T13:11:08.614Z,16.00
2023-04-18T13:13:41.716Z,16.00
2023-04-18T13:16:13.428Z,15.90
2023-04-18T13:18:45.144Z,15.90
2023-04-18T13:21:16.848Z,15.90
2023-04-18T13:23:48.528Z,15.80
2023-04-18T13:26:20.308Z,15.80
2023-04-18T13:28:53.326Z,15.80
2023-04-18T13:31:25.582Z,15.90
2023-04-18T13:33:57.775Z,15.90
2023-04-18T13:36:29.648Z,16.20
2023-04-18T13:39:01.735Z,16.10
2023-04-18T13:41:34.622Z,16.20
2023-04-18T13:44:07.659Z,16.20
2023-04-18T13:46:39.337Z,16.20
2023-04-18T13:49:11.001Z,16.30
2023-04-18T13:51:42.669Z,16.40
2023-04-18T13:54:15.109Z,16.40
2023-04-18T13:56:46.821Z,16.20
2023-04-18T13:59:19.823Z,16.20
2023-04-18T14:01:51.773Z,16.10
2023-04-18T14:04:23.668Z,16.00
2023-04-18T14:06:55.510Z,16.00
2023-04-18T14:09:27.250Z,16.00
2023-04-18T14:11:58.902Z,16.00
2023-04-18T14:14:31.987Z,16.10
2023-04-18T14:17:03.655Z,15.90
2023-04-18T14:19:35.464Z,15.90
2023-04-18T14:22:07.181Z,16.00
2023-04-18T14:24:38.912Z,16.00
2023-04-18T14:27:10.593Z,16.20
2023-04-18T14:29:43.621Z,16.50
2023-04-18T14:32:15.266Z,16.80
2023-04-18T14:34:46.932Z,16.90
2023-04-18T14:37:18.622Z,16.90
2023-04-18T14:39:50.338Z,16.90
2023-04-18T14:42:21.998Z,16.80
2023-04-18T14:44:55.021Z,16.80
2023-04-18T14:47:26.706Z,16.50
2023-04-18T14:49:58.460Z,16.40
2023-04-18T14:52:30.164Z,16.20
2023-04-18T14:55:02.029Z,16.10
2023-04-18T14:57:33.881Z,16.00
2023-04-18T15:00:08.541Z,15.90
2023-04-18T15:02:40.556Z,15.80
2023-04-18T15:05:12.658Z,15.80
2023-04-18T15:07:44.359Z,15.90
2023-04-18T15:10:16.074Z,15.90
2023-04-18T15:12:47.825Z,16.00
2023-04-18T15:15:21.022Z,16.00
2023-04-18T15:17:52.789Z,16.10
2023-04-18T15:20:24.484Z,16.00
2023-04-18T15:22:56.153Z,16.00
2023-04-18T15:25:27.854Z,16.00
2023-04-18T15:27:59.531Z,16.10
2023-04-18T15:30:32.575Z,16.10
2023-04-18T15:33:04.314Z,16.20
2023-04-18T15:35:36.187Z,16.20
2023-04-18T15:38:07.885Z,16.20
2023-04-18T15:40:39.653Z,16.00
2023-04-18T15:43:11.358Z,16.00
2023-04-18T15:45:44.465Z,15.80
2023-04-18T15:48:16.327Z,15.70
2023-04-18T15:50:50.249Z,15.60
2023-04-18T15:53:21.968Z,15.50
2023-04-18T15:55:53.677Z,15.50
2023-04-18T15:58:25.337Z,15.40
2023-04-18T16:00:58.388Z,15.40
2023-04-18T16:03:30.285Z,15.40
2023-04-18T16:06:02.334Z,15.40
2023-04-18T16:08:34.067Z,15.30
2023-04-18T16:11:06.393Z,15.30
2023-04-18T16:13:38.446Z,15.20
2023-04-18T16:16:11.701Z,15.30
2023-04-18T16:18:43.411Z,15.30
2023-04-18T16:21:15.072Z,15.20
2023-04-18T16:23:47.739Z,15.20
2023-04-18T16:26:19.400Z,15.20
2023-04-18T16:28:51.057Z,15.20
2023-04-18T16:31:24.109Z,15.10
2023-04-18T16:33:55.880Z,15.10
2023-04-18T16:36:27.647Z,15.10
2023-04-18T16:38:59.664Z,15.20
2023-04-18T16:41:31.367Z,15.20
2023-04-18T16:44:03.178Z,15.30
2023-04-18T16:46:36.270Z,15.40
2023-04-18T16:49:08.038Z,15.50
2023-04-18T16:51:39.744Z,15.50
2023-04-18T16:54:11.520Z,15.60
2023-04-18T16:56:43.225Z,15.50
2023-04-18T16:59:14.924Z,15.50
2023-04-18T17:01:48.092Z,15.50
2023-04-18T17:04:19.806Z,15.40
2023-04-18T17:06:52.092Z,15.50
2023-04-18T17:09:23.919Z,15.50
2023-04-18T17:11:55.590Z,15.40
2023-04-18T17:14:27.254Z,15.40
2023-04-18T17:17:00.295Z,15.40
2023-04-18T17:19:31.973Z,15.40
2023-04-18T17:22:03.664Z,15.30
2023-04-18T17:24:35.343Z,15.30
2023-04-18T17:27:07.006Z,15.30
2023-04-18T17:29:38.773Z,15.20
2023-04-18T17:32:11.888Z,15.10
2023-04-18T17:34:43.592Z,15.10
2023-04-18T17:37:15.255Z,15.00
2023-04-18T17:39:46.947Z,14.90
2023-04-18T17:42:19.065Z,14.80
2023-04-18T17:44:50.749Z,14.80
2023-04-18T17:47:23.843Z,14.70
2023-04-18T17:49:55.578Z,14.60
2023-04-18T17:52:27.236Z,14.60
2023-04-18T17:54:58.984Z,14.50
2023-04-18T17:57:30.663Z,14.40
2023-04-18T18:00:02.348Z,14.40
2023-04-18T18:02:35.427Z,14.40
2023-04-18T18:05:09.103Z,14.30
2023-04-18T18:07:40.823Z,14.30
2023-04-18T18:10:13.325Z,14.20
2023-04-18T18:12:45.012Z,14.20
2023-04-18T18:15:18.046Z,14.10
2023-04-18T18:17:51.116Z,14.10
2023-04-18T18:20:22.826Z,14.00
2023-04-18T18:22:54.496Z,14.00
2023-04-18T18:25:26.170Z,14.00
2023-04-18T18:27:57.833Z,13.90
2023-04-18T18:30:29.543Z,13.90
2023-04-18T18:33:02.638Z,13.90
2023-04-18T18:35:34.330Z,13.90
2023-04-18T18:38:05.992Z,13.90
2023-04-18T18:40:37.735Z,13.80
2023-04-18T18:43:09.383Z,13.80
2023-04-18T18:45:41.050Z,13.80
2023-04-18T18:48:14.234Z,13.70
2023-04-18T18:50:46.045Z,13.70
2023-04-18T18:53:17.719Z,13.70
2023-04-18T18:55:49.392Z,13.60
2023-04-18T18:58:21.072Z,13.60
2023-04-18T19:00:52.778Z,13.50
2023-04-18T19:03:25.958Z,13.50
2023-04-18T19:05:57.743Z,13.50
2023-04-18T19:08:29.483Z,13.40
2023-04-18T19:11:01.169Z,13.30
2023-04-18T19:13:32.825Z,13.30
2023-04-18T19:16:04.998Z,13.30
2023-04-18T19:18:38.156Z,13.30
2023-04-18T19:21:09.817Z,13.30
2023-04-18T19:23:41.480Z,13.30
2023-04-18T19:26:13.143Z,13.30
2023-04-18T19:28:44.879Z,13.30
2023-04-18T19:31:16.531Z,13.20
2023-04-18T19:33:49.761Z,13.20
2023-04-18T19:36:21.405Z,13.20
2023-04-18T19:38:53.067Z,13.20
2023-04-18T19:41:24.701Z,13.20
2023-04-18T19:43:56.367Z,13.30
2023-04-18T19:46:28.061Z,13.30
2023-04-18T19:49:01.098Z,13.30
2023-04-18T19:51:32.746Z,13.30
2023-04-18T19:54:04.484Z,13.30
2023-04-18T19:56:36.116Z,13.40
2023-04-18T19:59:07.809Z,13.40
2023-04-18T20:01:39.498Z,13.40
2023-04-18T20:04:12.707Z,13.40
2023-04-18T20:06:44.447Z,13.50
2023-04-18T20:09:16.307Z,13.50
2023-04-18T20:11:48.395Z,13.50
2023-04-18T20:14:20.101Z,13.50
2023-04-18T20:16:51.825Z,13.50
2023-04-18T20:19:25.030Z,13.50
2023-04-18T20:21:56.712Z,13.50
2023-04-18T20:24:29.300Z,13.50
2023-04-18T20:27:01.212Z,13.60
2023-04-18T20:29:32.879Z,13.50
2023-04-18T20:32:05.104Z,13.50
2023-04-18T20:34:38.154Z,13.50
2023-04-18T20:37:09.819Z,13.50
2023-04-18T20:39:41.508Z,13.50
2023-04-18T20:42:13.156Z,13.40
2023-04-18T20:44:44.838Z,13.30
2023-04-18T20:47:16.541Z,13.30
2023-04-18T20:49:49.602Z,13.20
2023-04-18T20:52:21.271Z,13.20
2023-04-18T20:54:52.929Z,13.10
2023-04-18T20:57:24.597Z,13.10
2023-04-18T20:59:56.253Z,13.00
2023-04-18T21:02:27.996Z,13.00
2023-04-18T21:05:01.087Z,13.00
2023-04-18T21:07:32.712Z,13.00
2023-04-18T21:10:04.916Z,13.00
2023-04-18T21:12:36.551Z,12.90
2023-04-18T21:15:08.991Z,12.90
2023-04-18T21:17:40.715Z,12.90
2023-04-18T21:20:13.791Z,12.90
2023-04-18T21:22:45.438Z,12.90
2023-04-18T21:25:17.245Z,12.90
2023-04-18T21:27:48.894Z,12.90
2023-04-18T21:30:20.909Z,12.90
2023-04-18T21:32:52.576Z,12.90
2023-04-18T21:35:25.753Z,12.90
2023-04-18T21:37:57.393Z,12.90
2023-04-18T21:40:29.133Z,12.90
2023-04-18T21:43:00.782Z,12.90
2023-04-18T21:45:32.494Z,12.90
2023-04-18T21:48:04.988Z,12.90
2023-04-18T21:50:38.059Z,12.90
2023-04-18T21:53:09.710Z,12.90
2023-04-18T21:55:41.433Z,12.90
2023-04-18T21:58:13.722Z,12.90
